sensor_id;sensor_type;location;lat;lon;timestamp;temperature;humidity
26186;DHT22;20067;48.764;9.176;2023-02-01T00:01:50;4.50;91.30
26186;DHT22;20067;48.764;9.176;2023-02-01T00:04:16;4.50;91.30
26186;DHT22;20067;48.764;9.176;2023-02-01T00:06:41;4.50;91.30
26186;DHT22;20067;48.764;9.176;2023-02-01T00:09:07;4.50;91.30
26186;DHT22;20067;48.764;9.176;2023-02-01T00:11:33;4.50;91.30
26186;DHT22;20067;48.764;9.176;2023-02-01T00:13:58;4.50;91.30
26186;DHT22;20067;48.764;9.176;2023-02-01T00:16:27;4.50;91.30
26186;DHT22;20067;48.764;9.176;2023-02-01T00:19:12;4.50;91.30
26186;DHT22;20067;48.764;9.176;2023-02-01T00:21:39;4.50;91.30
26186;DHT22;20067;48.764;9.176;2023-02-01T00:24:05;4.50;91.30
26186;DHT22;20067;48.764;9.176;2023-02-01T00:26:42;4.50;91.30
26186;DHT22;20067;48.764;9.176;2023-02-01T00:29:16;4.50;91.30
26186;DHT22;20067;48.764;9.176;2023-02-01T00:31:43;4.50;91.30
26186;DHT22;20067;48.764;9.176;2023-02-01T00:34:11;4.60;91.30
26186;DHT22;20067;48.764;9.176;2023-02-01T00:36:38;4.50;91.30
26186;DHT22;20067;48.764;9.176;2023-02-01T00:39:04;4.60;91.30
26186;DHT22;20067;48.764;9.176;2023-02-01T00:41:29;4.60;91.30
26186;DHT22;20067;48.764;9.176;2023-02-01T00:43:55;4.60;91.30
26186;DHT22;20067;48.764;9.176;2023-02-01T00:46:21;4.60;91.30
26186;DHT22;20067;48.764;9.176;2023-02-01T00:48:47;4.70;91.30
26186;DHT22;20067;48.764;9.176;2023-02-01T00:51:16;4.60;91.30
26186;DHT22;20067;48.764;9.176;2023-02-01T00:53:42;4.70;91.30
26186;DHT22;20067;48.764;9.176;2023-02-01T00:56:09;4.70;91.30
26186;DHT22;20067;48.764;9.176;2023-02-01T00:58:35;4.70;91.30
26186;DHT22;20067;48.764;9.176;2023-02-01T01:03:29;4.70;91.30
26186;DHT22;20067;48.764;9.176;2023-02-01T01:05:59;4.80;91.30
26186;DHT22;20067;48.764;9.176;2023-02-01T01:08:25;4.80;91.30
26186;DHT22;20067;48.764;9.176;2023-02-01T01:10:51;4.80;91.30
26186;DHT22;20067;48.764;9.176;2023-02-01T01:13:17;4.80;91.30
26186;DHT22;20067;48.764;9.176;2023-02-01T01:15:42;4.80;91.30
26186;DHT22;20067;48.764;9.176;2023-02-01T01:18:08;4.80;91.30
26186;DHT22;20067;48.764;9.176;2023-02-01T01:20:37;4.80;91.30
26186;DHT22;20067;48.764;9.176;2023-02-01T01:23:04;4.80;91.30
26186;DHT22;20067;48.764;9.176;2023-02-01T01:25:30;4.70;91.30
26186;DHT22;20067;48.764;9.176;2023-02-01T01:27:56;4.70;91.30
26186;DHT22;20067;48.764;9.176;2023-02-01T01:30:21;4.70;91.30
26186;DHT22;20067;48.764;9.176;2023-02-01T01:32:47;4.70;91.30
26186;DHT22;20067;48.764;9.176;2023-02-01T01:35:13;4.70;91.30
26186;DHT22;20067;48.764;9.176;2023-02-01T01:37:39;4.80;91.30
26186;DHT22;20067;48.764;9.176;2023-02-01T01:40:05;4.80;91.30
26186;DHT22;20067;48.764;9.176;2023-02-01T01:42:39;4.80;91.30
26186;DHT22;20067;48.764;9.176;2023-02-01T01:45:30;4.80;91.30
26186;DHT22;20067;48.764;9.176;2023-02-01T01:48:03;4.80;91.30
26186;DHT22;20067;48.764;9.176;2023-02-01T01:50:35;4.80;91.30
26186;DHT22;20067;48.764;9.176;2023-02-01T01:53:05;4.80;91.30
26186;DHT22;20067;48.764;9.176;2023-02-01T01:55:33;4.80;91.30
26186;DHT22;20067;48.764;9.176;2023-02-01T01:58:05;4.80;91.30
26186;DHT22;20067;48.764;9.176;2023-02-01T02:00:32;4.80;91.30
26186;DHT22;20067;48.764;9.176;2023-02-01T02:03:10;4.80;91.30
26186;DHT22;20067;48.764;9.176;2023-02-01T02:05:37;4.80;91.30
26186;DHT22;20067;48.764;9.176;2023-02-01T02:08:03;4.80;91.30
26186;DHT22;20067;48.764;9.176;2023-02-01T02:10:28;4.80;91.30
26186;DHT22;20067;48.764;9.176;2023-02-01T02:13:14;4.80;91.30
26186;DHT22;20067;48.764;9.176;2023-02-01T02:15:49;4.80;91.30
26186;DHT22;20067;48.764;9.176;2023-02-01T02:18:27;4.80;91.30
26186;DHT22;20067;48.764;9.176;2023-02-01T02:21:03;4.80;91.30
26186;DHT22;20067;48.764;9.176;2023-02-01T02:32:11;4.90;91.30
26186;DHT22;20067;48.764;9.176;2023-02-01T02:45:47;4.90;91.30
26186;DHT22;20067;48.764;9.176;2023-02-01T02:48:43;5.00;91.30
26186;DHT22;20067;48.764;9.176;2023-02-01T02:51:11;4.90;91.30
26186;DHT22;20067;48.764;9.176;2023-02-01T02:54:07;5.00;91.30
26186;DHT22;20067;48.764;9.176;2023-02-01T02:56:53;5.00;91.30
26186;DHT22;20067;48.764;9.176;2023-02-01T02:59:41;4.90;91.30
26186;DHT22;20067;48.764;9.176;2023-02-01T03:02:27;4.90;91.30
26186;DHT22;20067;48.764;9.176;2023-02-01T03:05:12;4.90;91.30
26186;DHT22;20067;48.764;9.176;2023-02-01T03:15:53;4.90;91.30
26186;DHT22;20067;48.764;9.176;2023-02-01T03:20:53;4.90;91.30
26186;DHT22;20067;48.764;9.176;2023-02-01T03:23:24;4.90;91.30
26186;DHT22;20067;48.764;9.176;2023-02-01T03:25:53;4.90;91.30
26186;DHT22;20067;48.764;9.176;2023-02-01T03:28:23;4.90;91.30
26186;DHT22;20067;48.764;9.176;2023-02-01T03:30:49;4.90;91.30
26186;DHT22;20067;48.764;9.176;2023-02-01T03:33:18;4.90;91.30
26186;DHT22;20067;48.764;9.176;2023-02-01T03:44:13;4.80;91.30
26186;DHT22;20067;48.764;9.176;2023-02-01T03:46:41;4.80;91.30
26186;DHT22;20067;48.764;9.176;2023-02-01T03:49:10;4.90;91.30
26186;DHT22;20067;48.764;9.176;2023-02-01T03:51:40;4.90;91.30
26186;DHT22;20067;48.764;9.176;2023-02-01T03:54:09;4.90;91.30
26186;DHT22;20067;48.764;9.176;2023-02-01T03:56:38;4.90;91.30
26186;DHT22;20067;48.764;9.176;2023-02-01T03:59:05;4.90;91.30
26186;DHT22;20067;48.764;9.176;2023-02-01T04:01:31;4.90;91.30
26186;DHT22;20067;48.764;9.176;2023-02-01T04:03:58;4.90;91.30
26186;DHT22;20067;48.764;9.176;2023-02-01T04:06:24;4.90;91.30
26186;DHT22;20067;48.764;9.176;2023-02-01T04:08:50;4.90;91.30
26186;DHT22;20067;48.764;9.176;2023-02-01T04:11:17;5.00;91.30
26186;DHT22;20067;48.764;9.176;2023-02-01T04:13:43;5.00;91.30
26186;DHT22;20067;48.764;9.176;2023-02-01T04:16:08;5.00;91.30
26186;DHT22;20067;48.764;9.176;2023-02-01T04:18:34;5.00;91.30
26186;DHT22;20067;48.764;9.176;2023-02-01T04:21:00;5.00;91.30
26186;DHT22;20067;48.764;9.176;2023-02-01T04:23:27;5.00;91.30
26186;DHT22;20067;48.764;9.176;2023-02-01T04:25:53;5.00;91.30
26186;DHT22;20067;48.764;9.176;2023-02-01T04:28:18;5.00;91.30
26186;DHT22;20067;48.764;9.176;2023-02-01T04:30:45;5.00;91.30
26186;DHT22;20067;48.764;9.176;2023-02-01T04:33:11;5.00;91.30
26186;DHT22;20067;48.764;9.176;2023-02-01T04:35:39;5.00;91.30
26186;DHT22;20067;48.764;9.176;2023-02-01T04:38:05;5.00;91.30
26186;DHT22;20067;48.764;9.176;2023-02-01T04:40:32;5.00;91.30
26186;DHT22;20067;48.764;9.176;2023-02-01T04:42:57;4.90;91.30
26186;DHT22;20067;48.764;9.176;2023-02-01T04:45:23;5.00;91.30
26186;DHT22;20067;48.764;9.176;2023-02-01T04:47:49;5.00;91.30
26186;DHT22;20067;48.764;9.176;2023-02-01T04:50:17;5.00;91.30
26186;DHT22;20067;48.764;9.176;2023-02-01T04:52:43;5.10;91.30
26186;DHT22;20067;48.764;9.176;2023-02-01T04:55:11;5.10;91.30
26186;DHT22;20067;48.764;9.176;2023-02-01T04:57:36;5.10;91.30
26186;DHT22;20067;48.764;9.176;2023-02-01T05:00:05;5.10;91.30
26186;DHT22;20067;48.764;9.176;2023-02-01T05:02:30;5.20;91.30
26186;DHT22;20067;48.764;9.176;2023-02-01T05:04:57;5.10;91.30
26186;DHT22;20067;48.764;9.176;2023-02-01T05:07:23;5.20;91.30
26186;DHT22;20067;48.764;9.176;2023-02-01T05:09:48;5.10;91.30
26186;DHT22;20067;48.764;9.176;2023-02-01T05:12:14;5.20;91.30
26186;DHT22;20067;48.764;9.176;2023-02-01T05:14:58;5.20;91.30
26186;DHT22;20067;48.764;9.176;2023-02-01T05:17:24;5.30;91.30
26186;DHT22;20067;48.764;9.176;2023-02-01T05:19:49;5.30;91.30
26186;DHT22;20067;48.764;9.176;2023-02-01T05:22:15;5.30;91.30
26186;DHT22;20067;48.764;9.176;2023-02-01T05:24:40;5.40;91.30
26186;DHT22;20067;48.764;9.176;2023-02-01T05:27:06;5.40;91.30
26186;DHT22;20067;48.764;9.176;2023-02-01T05:29:32;5.40;91.30
26186;DHT22;20067;48.764;9.176;2023-02-01T05:31:57;5.40;91.30
26186;DHT22;20067;48.764;9.176;2023-02-01T05:34:23;5.40;91.30
26186;DHT22;20067;48.764;9.176;2023-02-01T05:36:48;5.40;91.30
26186;DHT22;20067;48.764;9.176;2023-02-01T05:39:14;5.40;91.30
26186;DHT22;20067;48.764;9.176;2023-02-01T05:41:39;5.40;91.30
26186;DHT22;20067;48.764;9.176;2023-02-01T05:44:05;5.40;91.30
26186;DHT22;20067;48.764;9.176;2023-02-01T05:46:33;5.40;91.30
26186;DHT22;20067;48.764;9.176;2023-02-01T05:48:59;5.40;91.30
26186;DHT22;20067;48.764;9.176;2023-02-01T05:51:24;5.40;91.30
26186;DHT22;20067;48.764;9.176;2023-02-01T05:53:50;5.40;91.30
26186;DHT22;20067;48.764;9.176;2023-02-01T05:56:15;5.30;91.30
26186;DHT22;20067;48.764;9.176;2023-02-01T05:58:41;5.30;91.30
26186;DHT22;20067;48.764;9.176;2023-02-01T06:01:07;5.30;91.30
26186;DHT22;20067;48.764;9.176;2023-02-01T06:03:32;5.30;91.30
26186;DHT22;20067;48.764;9.176;2023-02-01T06:05:58;5.20;91.30
26186;DHT22;20067;48.764;9.176;2023-02-01T06:08:25;5.10;91.30
26186;DHT22;20067;48.764;9.176;2023-02-01T06:11:00;5.10;91.30
26186;DHT22;20067;48.764;9.176;2023-02-01T06:13:26;5.00;91.30
26186;DHT22;20067;48.764;9.176;2023-02-01T06:15:52;4.90;91.30
26186;DHT22;20067;48.764;9.176;2023-02-01T06:18:18;4.90;91.30
26186;DHT22;20067;48.764;9.176;2023-02-01T06:20:44;4.90;91.30
26186;DHT22;20067;48.764;9.176;2023-02-01T06:23:09;4.90;91.30
26186;DHT22;20067;48.764;9.176;2023-02-01T06:25:35;5.00;91.30
26186;DHT22;20067;48.764;9.176;2023-02-01T06:28:01;5.00;91.30
26186;DHT22;20067;48.764;9.176;2023-02-01T06:30:27;5.00;91.30
26186;DHT22;20067;48.764;9.176;2023-02-01T06:32:52;5.10;91.30
26186;DHT22;20067;48.764;9.176;2023-02-01T06:35:19;5.10;91.30
26186;DHT22;20067;48.764;9.176;2023-02-01T06:37:44;5.10;91.30
26186;DHT22;20067;48.764;9.176;2023-02-01T06:40:11;5.10;91.30
26186;DHT22;20067;48.764;9.176;2023-02-01T06:42:37;5.20;91.30
26186;DHT22;20067;48.764;9.176;2023-02-01T06:45:03;5.20;91.30
26186;DHT22;20067;48.764;9.176;2023-02-01T06:47:28;5.20;91.30
26186;DHT22;20067;48.764;9.176;2023-02-01T06:49:54;5.30;91.30
26186;DHT22;20067;48.764;9.176;2023-02-01T06:52:19;5.30;91.30
26186;DHT22;20067;48.764;9.176;2023-02-01T06:54:45;5.30;91.30
26186;DHT22;20067;48.764;9.176;2023-02-01T06:57:11;5.40;91.30
26186;DHT22;20067;48.764;9.176;2023-02-01T06:59:37;5.40;91.30
26186;DHT22;20067;48.764;9.176;2023-02-01T07:02:02;5.40;91.30
26186;DHT22;20067;48.764;9.176;2023-02-01T07:04:28;5.40;91.30
26186;DHT22;20067;48.764;9.176;2023-02-01T07:06:54;5.40;91.30
26186;DHT22;20067;48.764;9.176;2023-02-01T07:09:20;5.50;91.30
26186;DHT22;20067;48.764;9.176;2023-02-01T07:11:45;5.50;91.30
26186;DHT22;20067;48.764;9.176;2023-02-01T07:14:11;5.50;91.30
26186;DHT22;20067;48.764;9.176;2023-02-01T07:16:37;5.50;91.30
26186;DHT22;20067;48.764;9.176;2023-02-01T07:19:03;5.60;91.30
26186;DHT22;20067;48.764;9.176;2023-02-01T07:21:29;5.60;91.30
26186;DHT22;20067;48.764;9.176;2023-02-01T07:23:55;5.60;91.30
26186;DHT22;20067;48.764;9.176;2023-02-01T07:26:21;5.60;91.30
26186;DHT22;20067;48.764;9.176;2023-02-01T07:28:47;5.60;91.30
26186;DHT22;20067;48.764;9.176;2023-02-01T07:31:15;5.70;91.30
26186;DHT22;20067;48.764;9.176;2023-02-01T07:33:44;5.60;91.30
26186;DHT22;20067;48.764;9.176;2023-02-01T07:36:14;5.70;91.30
26186;DHT22;20067;48.764;9.176;2023-02-01T07:38:40;5.70;91.30
26186;DHT22;20067;48.764;9.176;2023-02-01T07:41:07;5.60;91.30
26186;DHT22;20067;48.764;9.176;2023-02-01T07:43:34;5.60;91.30
26186;DHT22;20067;48.764;9.176;2023-02-01T07:46:00;5.60;91.30
26186;DHT22;20067;48.764;9.176;2023-02-01T07:48:26;5.60;91.30
26186;DHT22;20067;48.764;9.176;2023-02-01T07:51:05;5.60;91.30
26186;DHT22;20067;48.764;9.176;2023-02-01T07:53:32;5.60;91.30
26186;DHT22;20067;48.764;9.176;2023-02-01T07:55:58;5.70;91.30
26186;DHT22;20067;48.764;9.176;2023-02-01T07:58:26;5.80;91.30
26186;DHT22;20067;48.764;9.176;2023-02-01T08:00:52;5.70;91.30
26186;DHT22;20067;48.764;9.176;2023-02-01T08:03:39;5.80;91.30
26186;DHT22;20067;48.764;9.176;2023-02-01T08:06:04;5.80;91.30
26186;DHT22;20067;48.764;9.176;2023-02-01T08:08:31;5.80;91.30
26186;DHT22;20067;48.764;9.176;2023-02-01T08:11:02;5.90;91.30
26186;DHT22;20067;48.764;9.176;2023-02-01T08:13:28;5.90;91.30
26186;DHT22;20067;48.764;9.176;2023-02-01T08:16:01;5.90;91.30
26186;DHT22;20067;48.764;9.176;2023-02-01T08:18:27;5.90;91.30
26186;DHT22;20067;48.764;9.176;2023-02-01T08:20:53;5.90;91.30
26186;DHT22;20067;48.764;9.176;2023-02-01T08:23:20;5.90;91.30
26186;DHT22;20067;48.764;9.176;2023-02-01T08:25:46;5.80;91.30
26186;DHT22;20067;48.764;9.176;2023-02-01T08:28:12;5.80;91.30
26186;DHT22;20067;48.764;9.176;2023-02-01T08:30:38;5.80;91.30
26186;DHT22;20067;48.764;9.176;2023-02-01T08:33:05;5.90;91.30
26186;DHT22;20067;48.764;9.176;2023-02-01T08:35:34;5.90;91.30
26186;DHT22;20067;48.764;9.176;2023-02-01T08:37:59;5.90;91.30
26186;DHT22;20067;48.764;9.176;2023-02-01T08:40:25;5.80;91.30
26186;DHT22;20067;48.764;9.176;2023-02-01T08:42:50;5.90;91.30
26186;DHT22;20067;48.764;9.176;2023-02-01T08:45:17;5.90;91.30
26186;DHT22;20067;48.764;9.176;2023-02-01T08:47:44;5.90;91.30
26186;DHT22;20067;48.764;9.176;2023-02-01T08:50:10;6.00;91.30
26186;DHT22;20067;48.764;9.176;2023-02-01T08:52:36;6.10;91.30
26186;DHT22;20067;48.764;9.176;2023-02-01T08:55:01;6.20;91.30
26186;DHT22;20067;48.764;9.176;2023-02-01T08:57:27;6.20;91.30
26186;DHT22;20067;48.764;9.176;2023-02-01T08:59:52;6.20;91.30
26186;DHT22;20067;48.764;9.176;2023-02-01T09:02:18;6.30;91.30
26186;DHT22;20067;48.764;9.176;2023-02-01T09:04:44;6.30;91.30
26186;DHT22;20067;48.764;9.176;2023-02-01T09:07:10;6.40;91.30
26186;DHT22;20067;48.764;9.176;2023-02-01T09:09:37;6.40;91.30
26186;DHT22;20067;48.764;9.176;2023-02-01T09:12:03;6.40;91.30
26186;DHT22;20067;48.764;9.176;2023-02-01T09:14:29;6.40;91.30
26186;DHT22;20067;48.764;9.176;2023-02-01T09:16:54;6.50;91.30
26186;DHT22;20067;48.764;9.176;2023-02-01T09:19:20;6.50;91.30
26186;DHT22;20067;48.764;9.176;2023-02-01T09:21:46;6.60;91.30
26186;DHT22;20067;48.764;9.176;2023-02-01T09:24:12;6.60;91.30
26186;DHT22;20067;48.764;9.176;2023-02-01T09:26:38;6.60;91.30
26186;DHT22;20067;48.764;9.176;2023-02-01T09:29:06;6.50;91.30
26186;DHT22;20067;48.764;9.176;2023-02-01T09:31:38;6.50;91.10
26186;DHT22;20067;48.764;9.176;2023-02-01T09:34:05;6.50;91.30
26186;DHT22;20067;48.764;9.176;2023-02-01T09:36:31;6.50;91.30
26186;DHT22;20067;48.764;9.176;2023-02-01T09:38:57;6.60;91.30
26186;DHT22;20067;48.764;9.176;2023-02-01T09:46:55;7.00;90.10
26186;DHT22;20067;48.764;9.176;2023-02-01T09:49:30;7.10;89.40
26186;DHT22;20067;48.764;9.176;2023-02-01T09:51:59;7.10;88.70
26186;DHT22;20067;48.764;9.176;2023-02-01T09:54:38;7.10;88.90
26186;DHT22;20067;48.764;9.176;2023-02-01T09:57:17;7.20;88.60
26186;DHT22;20067;48.764;9.176;2023-02-01T09:59:49;7.30;88.60
26186;DHT22;20067;48.764;9.176;2023-02-01T10:02:22;7.30;88.10
26186;DHT22;20067;48.764;9.176;2023-02-01T10:04:49;7.30;88.10
26186;DHT22;20067;48.764;9.176;2023-02-01T10:07:37;7.40;88.20
26186;DHT22;20067;48.764;9.176;2023-02-01T10:10:15;7.50;87.90
26186;DHT22;20067;48.764;9.176;2023-02-01T10:21:48;7.30;86.70
26186;DHT22;20067;48.764;9.176;2023-02-01T10:26:55;7.30;85.90
26186;DHT22;20067;48.764;9.176;2023-02-01T10:29:25;7.30;85.80
26186;DHT22;20067;48.764;9.176;2023-02-01T10:31:52;7.40;85.40
26186;DHT22;20067;48.764;9.176;2023-02-01T10:34:21;7.50;84.80
26186;DHT22;20067;48.764;9.176;2023-02-01T10:36:57;7.50;85.30
26186;DHT22;20067;48.764;9.176;2023-02-01T10:39:25;7.50;84.50
26186;DHT22;20067;48.764;9.176;2023-02-01T10:41:50;7.50;84.30
26186;DHT22;20067;48.764;9.176;2023-02-01T10:44:26;7.50;84.50
26186;DHT22;20067;48.764;9.176;2023-02-01T10:46:53;7.50;84.60
26186;DHT22;20067;48.764;9.176;2023-02-01T10:49:33;7.60;84.20
26186;DHT22;20067;48.764;9.176;2023-02-01T10:52:06;7.50;84.20
26186;DHT22;20067;48.764;9.176;2023-02-01T10:54:37;7.60;84.40
26186;DHT22;20067;48.764;9.176;2023-02-01T10:57:08;7.50;84.10
26186;DHT22;20067;48.764;9.176;2023-02-01T10:59:34;7.60;83.60
26186;DHT22;20067;48.764;9.176;2023-02-01T11:02:15;7.50;83.00
26186;DHT22;20067;48.764;9.176;2023-02-01T11:04:41;7.40;83.50
26186;DHT22;20067;48.764;9.176;2023-02-01T11:09:50;7.30;82.60
26186;DHT22;20067;48.764;9.176;2023-02-01T11:12:33;7.40;82.80
26186;DHT22;20067;48.764;9.176;2023-02-01T11:15:23;7.50;83.10
26186;DHT22;20067;48.764;9.176;2023-02-01T11:17:51;7.50;82.70
26186;DHT22;20067;48.764;9.176;2023-02-01T11:20:38;7.60;82.40
26186;DHT22;20067;48.764;9.176;2023-02-01T11:23:11;7.50;82.10
26186;DHT22;20067;48.764;9.176;2023-02-01T11:25:48;7.50;82.50
26186;DHT22;20067;48.764;9.176;2023-02-01T11:28:15;7.60;82.60
26186;DHT22;20067;48.764;9.176;2023-02-01T11:30:44;7.60;81.90
26186;DHT22;20067;48.764;9.176;2023-02-01T11:33:19;7.60;82.10
26186;DHT22;20067;48.764;9.176;2023-02-01T11:35:47;7.60;82.10
26186;DHT22;20067;48.764;9.176;2023-02-01T11:38:31;7.60;82.00
26186;DHT22;20067;48.764;9.176;2023-02-01T11:41:14;7.70;81.70
26186;DHT22;20067;48.764;9.176;2023-02-01T11:46:19;7.70;81.30
26186;DHT22;20067;48.764;9.176;2023-02-01T11:48:51;7.60;81.40
26186;DHT22;20067;48.764;9.176;2023-02-01T11:54:05;7.60;81.80
26186;DHT22;20067;48.764;9.176;2023-02-01T12:08:03;7.80;79.70
26186;DHT22;20067;48.764;9.176;2023-02-01T12:16:19;7.60;79.80
26186;DHT22;20067;48.764;9.176;2023-02-01T12:22:12;7.50;79.80
26186;DHT22;20067;48.764;9.176;2023-02-01T12:43:49;7.30;81.30
26186;DHT22;20067;48.764;9.176;2023-02-01T12:46:24;7.30;81.40
26186;DHT22;20067;48.764;9.176;2023-02-01T12:48:56;7.20;81.80
26186;DHT22;20067;48.764;9.176;2023-02-01T12:51:28;7.20;81.80
26186;DHT22;20067;48.764;9.176;2023-02-01T12:56:59;7.20;82.10
26186;DHT22;20067;48.764;9.176;2023-02-01T12:59:33;7.20;82.10
26186;DHT22;20067;48.764;9.176;2023-02-01T13:04:55;7.20;83.00
26186;DHT22;20067;48.764;9.176;2023-02-01T13:10:35;7.30;82.80
26186;DHT22;20067;48.764;9.176;2023-02-01T13:13:19;7.20;82.80
26186;DHT22;20067;48.764;9.176;2023-02-01T13:18:45;7.10;83.10
26186;DHT22;20067;48.764;9.176;2023-02-01T13:21:25;7.10;82.80
26186;DHT22;20067;48.764;9.176;2023-02-01T13:23:52;7.20;83.10
26186;DHT22;20067;48.764;9.176;2023-02-01T13:26:18;7.20;82.90
26186;DHT22;20067;48.764;9.176;2023-02-01T13:28:45;7.20;82.60
26186;DHT22;20067;48.764;9.176;2023-02-01T13:35:10;7.10;82.50
26186;DHT22;20067;48.764;9.176;2023-02-01T13:43:34;7.10;82.80
26186;DHT22;20067;48.764;9.176;2023-02-01T13:46:06;7.20;82.60
26186;DHT22;20067;48.764;9.176;2023-02-01T13:48:51;7.20;82.50
26186;DHT22;20067;48.764;9.176;2023-02-01T13:51:40;7.10;83.00
26186;DHT22;20067;48.764;9.176;2023-02-01T13:54:06;7.10;83.60
26186;DHT22;20067;48.764;9.176;2023-02-01T13:56:43;7.10;83.60
26186;DHT22;20067;48.764;9.176;2023-02-01T14:05:01;7.10;84.00
26186;DHT22;20067;48.764;9.176;2023-02-01T14:07:27;7.10;84.00
26186;DHT22;20067;48.764;9.176;2023-02-01T14:09:53;7.10;84.30
26186;DHT22;20067;48.764;9.176;2023-02-01T14:15:21;7.30;84.00
26186;DHT22;20067;48.764;9.176;2023-02-01T14:17:48;7.30;83.20
26186;DHT22;20067;48.764;9.176;2023-02-01T14:20:40;7.30;83.00
26186;DHT22;20067;48.764;9.176;2023-02-01T14:23:15;7.30;82.90
26186;DHT22;20067;48.764;9.176;2023-02-01T14:25:43;7.20;82.70
26186;DHT22;20067;48.764;9.176;2023-02-01T14:28:25;7.20;82.80
26186;DHT22;20067;48.764;9.176;2023-02-01T14:30:54;7.10;82.60
26186;DHT22;20067;48.764;9.176;2023-02-01T14:33:23;7.10;83.00
26186;DHT22;20067;48.764;9.176;2023-02-01T14:36:13;7.10;82.80
26186;DHT22;20067;48.764;9.176;2023-02-01T14:38:49;7.10;83.20
26186;DHT22;20067;48.764;9.176;2023-02-01T14:41:29;7.10;83.30
26186;DHT22;20067;48.764;9.176;2023-02-01T14:49:52;7.10;82.80
26186;DHT22;20067;48.764;9.176;2023-02-01T14:52:20;7.10;83.10
26186;DHT22;20067;48.764;9.176;2023-02-01T14:54:53;7.10;83.40
26186;DHT22;20067;48.764;9.176;2023-02-01T14:57:24;7.10;83.40
26186;DHT22;20067;48.764;9.176;2023-02-01T14:59:59;7.10;83.30
26186;DHT22;20067;48.764;9.176;2023-02-01T15:02:26;7.10;83.50
26186;DHT22;20067;48.764;9.176;2023-02-01T15:04:56;7.10;83.70
26186;DHT22;20067;48.764;9.176;2023-02-01T15:07:24;7.00;83.90
26186;DHT22;20067;48.764;9.176;2023-02-01T15:09:51;7.10;83.80
26186;DHT22;20067;48.764;9.176;2023-02-01T15:12:23;7.10;84.00
26186;DHT22;20067;48.764;9.176;2023-02-01T15:15:15;7.10;84.10
26186;DHT22;20067;48.764;9.176;2023-02-01T15:17:56;7.10;84.50
26186;DHT22;20067;48.764;9.176;2023-02-01T15:20:40;7.00;84.20
26186;DHT22;20067;48.764;9.176;2023-02-01T15:23:16;7.00;84.50
26186;DHT22;20067;48.764;9.176;2023-02-01T15:25:45;7.00;84.60
26186;DHT22;20067;48.764;9.176;2023-02-01T15:28:14;7.00;84.50
26186;DHT22;20067;48.764;9.176;2023-02-01T15:30:50;6.90;84.50
26186;DHT22;20067;48.764;9.176;2023-02-01T15:33:18;6.90;85.10
26186;DHT22;20067;48.764;9.176;2023-02-01T15:41:08;7.00;85.80
26186;DHT22;20067;48.764;9.176;2023-02-01T15:46:39;7.00;84.70
26186;DHT22;20067;48.764;9.176;2023-02-01T15:49:24;7.00;84.70
26186;DHT22;20067;48.764;9.176;2023-02-01T15:51:51;7.00;84.80
26186;DHT22;20067;48.764;9.176;2023-02-01T15:54:38;7.00;84.20
26186;DHT22;20067;48.764;9.176;2023-02-01T15:57:06;7.00;84.00
26186;DHT22;20067;48.764;9.176;2023-02-01T15:59:43;7.00;84.00
26186;DHT22;20067;48.764;9.176;2023-02-01T16:02:36;6.90;83.50
26186;DHT22;20067;48.764;9.176;2023-02-01T16:05:04;6.90;83.80
26186;DHT22;20067;48.764;9.176;2023-02-01T16:07:32;7.00;83.30
26186;DHT22;20067;48.764;9.176;2023-02-01T16:10:00;7.00;83.10
26186;DHT22;20067;48.764;9.176;2023-02-01T16:15:04;7.00;82.70
26186;DHT22;20067;48.764;9.176;2023-02-01T16:17:31;7.00;82.60
26186;DHT22;20067;48.764;9.176;2023-02-01T16:19:57;7.00;82.40
26186;DHT22;20067;48.764;9.176;2023-02-01T16:22:23;7.10;82.50
26186;DHT22;20067;48.764;9.176;2023-02-01T16:24:49;7.00;82.60
26186;DHT22;20067;48.764;9.176;2023-02-01T16:27:15;7.00;82.50
26186;DHT22;20067;48.764;9.176;2023-02-01T16:29:40;7.00;82.80
26186;DHT22;20067;48.764;9.176;2023-02-01T16:32:09;7.00;82.50
26186;DHT22;20067;48.764;9.176;2023-02-01T16:34:38;7.10;82.80
26186;DHT22;20067;48.764;9.176;2023-02-01T16:37:05;7.10;82.40
26186;DHT22;20067;48.764;9.176;2023-02-01T16:39:31;7.00;82.50
26186;DHT22;20067;48.764;9.176;2023-02-01T16:41:58;7.00;82.80
26186;DHT22;20067;48.764;9.176;2023-02-01T16:44:24;7.00;83.00
26186;DHT22;20067;48.764;9.176;2023-02-01T16:46:50;7.00;83.10
26186;DHT22;20067;48.764;9.176;2023-02-01T16:49:24;7.00;83.30
26186;DHT22;20067;48.764;9.176;2023-02-01T16:51:51;7.10;82.60
26186;DHT22;20067;48.764;9.176;2023-02-01T16:54:20;7.00;82.80
26186;DHT22;20067;48.764;9.176;2023-02-01T16:56:46;7.00;82.80
26186;DHT22;20067;48.764;9.176;2023-02-01T16:59:12;7.00;82.20
26186;DHT22;20067;48.764;9.176;2023-02-01T17:01:38;7.00;82.60
26186;DHT22;20067;48.764;9.176;2023-02-01T17:04:04;6.90;82.90
26186;DHT22;20067;48.764;9.176;2023-02-01T17:06:30;7.00;82.90
26186;DHT22;20067;48.764;9.176;2023-02-01T17:08:58;7.00;82.90
26186;DHT22;20067;48.764;9.176;2023-02-01T17:11:25;6.90;82.90
26186;DHT22;20067;48.764;9.176;2023-02-01T17:13:51;6.90;83.10
26186;DHT22;20067;48.764;9.176;2023-02-01T17:18:43;6.80;83.50
26186;DHT22;20067;48.764;9.176;2023-02-01T17:21:10;6.80;83.90
26186;DHT22;20067;48.764;9.176;2023-02-01T17:23:36;6.70;83.90
26186;DHT22;20067;48.764;9.176;2023-02-01T17:26:02;6.70;84.10
26186;DHT22;20067;48.764;9.176;2023-02-01T17:28:28;6.70;84.20
26186;DHT22;20067;48.764;9.176;2023-02-01T17:30:54;6.80;83.90
26186;DHT22;20067;48.764;9.176;2023-02-01T17:33:24;6.70;83.90
26186;DHT22;20067;48.764;9.176;2023-02-01T17:35:52;6.70;83.70
26186;DHT22;20067;48.764;9.176;2023-02-01T17:38:18;6.70;84.00
26186;DHT22;20067;48.764;9.176;2023-02-01T17:40:44;6.70;84.00
26186;DHT22;20067;48.764;9.176;2023-02-01T17:43:14;6.80;84.00
26186;DHT22;20067;48.764;9.176;2023-02-01T17:48:28;6.90;83.70
26186;DHT22;20067;48.764;9.176;2023-02-01T17:50:54;6.80;83.90
26186;DHT22;20067;48.764;9.176;2023-02-01T17:53:27;6.80;83.90
26186;DHT22;20067;48.764;9.176;2023-02-01T17:55:53;6.80;83.90
26186;DHT22;20067;48.764;9.176;2023-02-01T17:58:22;6.80;84.10
26186;DHT22;20067;48.764;9.176;2023-02-01T18:00:49;6.80;84.30
26186;DHT22;20067;48.764;9.176;2023-02-01T18:05:43;6.70;84.60
26186;DHT22;20067;48.764;9.176;2023-02-01T18:08:16;6.60;84.70
26186;DHT22;20067;48.764;9.176;2023-02-01T18:10:42;6.70;84.80
26186;DHT22;20067;48.764;9.176;2023-02-01T18:13:10;6.60;84.80
26186;DHT22;20067;48.764;9.176;2023-02-01T18:15:36;6.60;85.00
26186;DHT22;20067;48.764;9.176;2023-02-01T18:18:04;6.70;84.90
26186;DHT22;20067;48.764;9.176;2023-02-01T18:20:30;6.70;85.00
26186;DHT22;20067;48.764;9.176;2023-02-01T18:22:56;6.60;85.10
26186;DHT22;20067;48.764;9.176;2023-02-01T18:25:23;6.70;85.20
26186;DHT22;20067;48.764;9.176;2023-02-01T18:27:50;6.70;84.90
26186;DHT22;20067;48.764;9.176;2023-02-01T18:30:29;6.70;84.90
26186;DHT22;20067;48.764;9.176;2023-02-01T18:32:56;6.70;85.00
26186;DHT22;20067;48.764;9.176;2023-02-01T18:35:27;6.70;85.10
26186;DHT22;20067;48.764;9.176;2023-02-01T18:37:54;6.80;84.80
26186;DHT22;20067;48.764;9.176;2023-02-01T18:40:29;6.70;84.90